sensor_id;sensor_type;location;lat;lon;timestamp;P1;durP1;ratioP1;P2;durP2;ratioP2
76059;SDS011;64759;52.220;5.170;2023-01-25T00:01:41;37.28;;;27.73;;
76059;SDS011;64759;52.220;5.170;2023-01-25T00:04:06;36.72;;;27.15;;
76059;SDS011;64759;52.220;5.170;2023-01-25T00:06:32;36.58;;;27.13;;
76059;SDS011;64759;52.220;5.170;2023-01-25T00:08:57;40.45;;;29.58;;
76059;SDS011;64759;52.220;5.170;2023-01-25T00:11:22;36.05;;;26.30;;
76059;SDS011;64759;52.220;5.170;2023-01-25T00:13:48;38.83;;;29.05;;
76059;SDS011;64759;52.220;5.170;2023-01-25T00:16:13;38.22;;;27.73;;
76059;SDS011;64759;52.220;5.170;2023-01-25T00:18:39;35.72;;;26.42;;
76059;SDS011;64759;52.220;5.170;2023-01-25T00:21:37;39.75;;;28.70;;
76059;SDS011;64759;52.220;5.170;2023-01-25T00:23:56;34.75;;;26.75;;
76059;SDS011;64759;52.220;5.170;2023-01-25T00:26:21;37.00;;;28.30;;
76059;SDS011;64759;52.220;5.170;2023-01-25T00:28:47;34.92;;;25.98;;
76059;SDS011;64759;52.220;5.170;2023-01-25T00:31:20;37.60;;;27.63;;
76059;SDS011;64759;52.220;5.170;2023-01-25T00:36:50;40.60;;;28.98;;
76059;SDS011;64759;52.220;5.170;2023-01-25T00:39:23;38.08;;;27.88;;
76059;SDS011;64759;52.220;5.170;2023-01-25T00:41:49;41.67;;;29.75;;
76059;SDS011;64759;52.220;5.170;2023-01-25T00:44:15;34.83;;;27.20;;
76059;SDS011;64759;52.220;5.170;2023-01-25T00:46:40;37.80;;;27.33;;
76059;SDS011;64759;52.220;5.170;2023-01-25T00:49:06;34.63;;;25.70;;
76059;SDS011;64759;52.220;5.170;2023-01-25T00:51:43;34.47;;;25.90;;
76059;SDS011;64759;52.220;5.170;2023-01-25T00:54:08;37.70;;;27.83;;
76059;SDS011;64759;52.220;5.170;2023-01-25T00:56:33;34.42;;;26.15;;
76059;SDS011;64759;52.220;5.170;2023-01-25T00:58:59;36.33;;;26.95;;
76059;SDS011;64759;52.220;5.170;2023-01-25T01:01:24;38.33;;;27.80;;
76059;SDS011;64759;52.220;5.170;2023-01-25T01:03:50;40.60;;;27.98;;
76059;SDS011;64759;52.220;5.170;2023-01-25T01:06:16;34.28;;;25.95;;
76059;SDS011;64759;52.220;5.170;2023-01-25T01:08:41;40.63;;;29.65;;
76059;SDS011;64759;52.220;5.170;2023-01-25T01:11:08;37.13;;;27.95;;
76059;SDS011;64759;52.220;5.170;2023-01-25T01:13:35;38.22;;;27.77;;
76059;SDS011;64759;52.220;5.170;2023-01-25T01:16:02;40.40;;;29.40;;
76059;SDS011;64759;52.220;5.170;2023-01-25T01:18:35;40.28;;;27.27;;
76059;SDS011;64759;52.220;5.170;2023-01-25T01:21:05;37.63;;;27.58;;
76059;SDS011;64759;52.220;5.170;2023-01-25T01:23:32;41.92;;;29.52;;
76059;SDS011;64759;52.220;5.170;2023-01-25T01:25:58;37.65;;;28.42;;
76059;SDS011;64759;52.220;5.170;2023-01-25T01:28:26;41.60;;;28.77;;
76059;SDS011;64759;52.220;5.170;2023-01-25T01:31:02;37.15;;;27.02;;
76059;SDS011;64759;52.220;5.170;2023-01-25T01:33:33;33.60;;;24.25;;
76059;SDS011;64759;52.220;5.170;2023-01-25T01:36:05;38.33;;;27.83;;
76059;SDS011;64759;52.220;5.170;2023-01-25T01:38:35;39.38;;;27.35;;
76059;SDS011;64759;52.220;5.170;2023-01-25T01:41:00;39.45;;;27.98;;
76059;SDS011;64759;52.220;5.170;2023-01-25T01:43:27;38.85;;;27.30;;
76059;SDS011;64759;52.220;5.170;2023-01-25T01:45:57;36.80;;;27.10;;
76059;SDS011;64759;52.220;5.170;2023-01-25T01:48:39;38.13;;;27.08;;
76059;SDS011;64759;52.220;5.170;2023-01-25T01:53:38;38.53;;;27.38;;
76059;SDS011;64759;52.220;5.170;2023-01-25T01:56:06;36.08;;;26.30;;
76059;SDS011;64759;52.220;5.170;2023-01-25T01:58:35;39.33;;;27.15;;
76059;SDS011;64759;52.220;5.170;2023-01-25T02:01:01;37.95;;;26.05;;
76059;SDS011;64759;52.220;5.170;2023-01-25T02:03:27;38.88;;;27.52;;
76059;SDS011;64759;52.220;5.170;2023-01-25T02:08:38;36.13;;;26.30;;
76059;SDS011;64759;52.220;5.170;2023-01-25T02:11:04;33.67;;;23.90;;
76059;SDS011;64759;52.220;5.170;2023-01-25T02:13:31;37.05;;;26.23;;
76059;SDS011;64759;52.220;5.170;2023-01-25T02:15:58;38.92;;;26.60;;
76059;SDS011;64759;52.220;5.170;2023-01-25T02:18:24;36.00;;;26.10;;
76059;SDS011;64759;52.220;5.170;2023-01-25T02:20:51;32.95;;;23.95;;
76059;SDS011;64759;52.220;5.170;2023-01-25T02:25:59;34.30;;;25.08;;
76059;SDS011;64759;52.220;5.170;2023-01-25T02:28:47;33.90;;;23.35;;
76059;SDS011;64759;52.220;5.170;2023-01-25T02:31:14;35.67;;;25.65;;
76059;SDS011;64759;52.220;5.170;2023-01-25T02:33:39;38.35;;;27.00;;
76059;SDS011;64759;52.220;5.170;2023-01-25T02:38:46;39.97;;;27.33;;
76059;SDS011;64759;52.220;5.170;2023-01-25T02:43:48;40.40;;;27.70;;
76059;SDS011;64759;52.220;5.170;2023-01-25T02:46:24;39.80;;;27.63;;
76059;SDS011;64759;52.220;5.170;2023-01-25T02:48:53;36.47;;;26.00;;
76059;SDS011;64759;52.220;5.170;2023-01-25T02:51:20;37.53;;;26.70;;
76059;SDS011;64759;52.220;5.170;2023-01-25T02:53:46;38.45;;;27.38;;
76059;SDS011;64759;52.220;5.170;2023-01-25T02:56:13;41.03;;;27.88;;
76059;SDS011;64759;52.220;5.170;2023-01-25T02:58:39;38.28;;;28.05;;
76059;SDS011;64759;52.220;5.170;2023-01-25T03:01:05;40.30;;;27.02;;
76059;SDS011;64759;52.220;5.170;2023-01-25T03:03:31;40.88;;;29.13;;
76059;SDS011;64759;52.220;5.170;2023-01-25T03:05:56;40.42;;;28.95;;
76059;SDS011;64759;52.220;5.170;2023-01-25T03:08:21;36.33;;;26.58;;
76059;SDS011;64759;52.220;5.170;2023-01-25T03:10:49;33.03;;;24.88;;
76059;SDS011;64759;52.220;5.170;2023-01-25T03:13:15;36.35;;;25.38;;
76059;SDS011;64759;52.220;5.170;2023-01-25T03:15:41;37.80;;;26.65;;
76059;SDS011;64759;52.220;5.170;2023-01-25T03:18:06;38.92;;;27.02;;
76059;SDS011;64759;52.220;5.170;2023-01-25T03:20:31;39.95;;;27.38;;
76059;SDS011;64759;52.220;5.170;2023-01-25T03:22:57;39.40;;;27.70;;
76059;SDS011;64759;52.220;5.170;2023-01-25T03:25:22;39.83;;;27.90;;
76059;SDS011;64759;52.220;5.170;2023-01-25T03:27:57;43.53;;;29.73;;
76059;SDS011;64759;52.220;5.170;2023-01-25T03:30:23;41.40;;;27.63;;
76059;SDS011;64759;52.220;5.170;2023-01-25T03:32:48;36.40;;;25.45;;
76059;SDS011;64759;52.220;5.170;2023-01-25T03:35:17;36.97;;;25.77;;
76059;SDS011;64759;52.220;5.170;2023-01-25T03:37:44;42.33;;;29.40;;
76059;SDS011;64759;52.220;5.170;2023-01-25T03:40:10;33.90;;;24.75;;
76059;SDS011;64759;52.220;5.170;2023-01-25T03:42:39;38.85;;;26.80;;
76059;SDS011;64759;52.220;5.170;2023-01-25T03:45:04;38.55;;;25.27;;
76059;SDS011;64759;52.220;5.170;2023-01-25T03:47:30;40.15;;;27.05;;
76059;SDS011;64759;52.220;5.170;2023-01-25T03:49:55;41.92;;;27.13;;
76059;SDS011;64759;52.220;5.170;2023-01-25T03:52:21;39.70;;;25.88;;
76059;SDS011;64759;52.220;5.170;2023-01-25T03:54:49;39.17;;;25.20;;
76059;SDS011;64759;52.220;5.170;2023-01-25T03:57:14;36.92;;;25.10;;
76059;SDS011;64759;52.220;5.170;2023-01-25T03:59:50;38.70;;;24.73;;
76059;SDS011;64759;52.220;5.170;2023-01-25T04:02:16;35.40;;;23.67;;
76059;SDS011;64759;52.220;5.170;2023-01-25T04:04:41;36.10;;;24.92;;
76059;SDS011;64759;52.220;5.170;2023-01-25T04:07:07;40.33;;;25.67;;
76059;SDS011;64759;52.220;5.170;2023-01-25T04:09:35;39.08;;;25.52;;
76059;SDS011;64759;52.220;5.170;2023-01-25T04:12:00;33.67;;;21.92;;
76059;SDS011;64759;52.220;5.170;2023-01-25T04:14:26;36.00;;;24.75;;
76059;SDS011;64759;52.220;5.170;2023-01-25T04:16:59;36.45;;;24.63;;
76059;SDS011;64759;52.220;5.170;2023-01-25T04:19:35;38.55;;;25.33;;
76059;SDS011;64759;52.220;5.170;2023-01-25T04:22:02;37.55;;;25.08;;
76059;SDS011;64759;52.220;5.170;2023-01-25T04:24:33;41.55;;;28.08;;
76059;SDS011;64759;52.220;5.170;2023-01-25T04:26:58;37.97;;;27.42;;
76059;SDS011;64759;52.220;5.170;2023-01-25T04:29:25;43.95;;;28.27;;
76059;SDS011;64759;52.220;5.170;2023-01-25T04:31:54;42.75;;;27.52;;
76059;SDS011;64759;52.220;5.170;2023-01-25T04:34:19;43.85;;;30.25;;
76059;SDS011;64759;52.220;5.170;2023-01-25T04:36:45;39.58;;;26.95;;
76059;SDS011;64759;52.220;5.170;2023-01-25T04:39:11;44.97;;;30.00;;
76059;SDS011;64759;52.220;5.170;2023-01-25T04:41:37;44.15;;;29.88;;
76059;SDS011;64759;52.220;5.170;2023-01-25T04:44:03;47.45;;;29.80;;
76059;SDS011;64759;52.220;5.170;2023-01-25T04:46:29;42.67;;;28.50;;
76059;SDS011;64759;52.220;5.170;2023-01-25T04:48:54;47.53;;;31.15;;
76059;SDS011;64759;52.220;5.170;2023-01-25T04:51:20;47.53;;;30.50;;
76059;SDS011;64759;52.220;5.170;2023-01-25T04:53:45;44.35;;;30.30;;
76059;SDS011;64759;52.220;5.170;2023-01-25T04:56:11;45.25;;;29.98;;
76059;SDS011;64759;52.220;5.170;2023-01-25T04:58:45;45.60;;;29.60;;
76059;SDS011;64759;52.220;5.170;2023-01-25T05:01:11;46.10;;;29.63;;
76059;SDS011;64759;52.220;5.170;2023-01-25T05:03:36;45.47;;;29.52;;
76059;SDS011;64759;52.220;5.170;2023-01-25T05:06:05;46.67;;;29.92;;
76059;SDS011;64759;52.220;5.170;2023-01-25T05:08:31;45.40;;;30.63;;
76059;SDS011;64759;52.220;5.170;2023-01-25T05:11:00;48.35;;;32.05;;
76059;SDS011;64759;52.220;5.170;2023-01-25T05:13:38;45.92;;;29.70;;
76059;SDS011;64759;52.220;5.170;2023-01-25T05:16:36;46.60;;;29.42;;
76059;SDS011;64759;52.220;5.170;2023-01-25T05:19:02;45.10;;;29.95;;
76059;SDS011;64759;52.220;5.170;2023-01-25T05:21:43;47.55;;;31.73;;
76059;SDS011;64759;52.220;5.170;2023-01-25T05:24:29;48.13;;;30.35;;
76059;SDS011;64759;52.220;5.170;2023-01-25T05:26:59;51.70;;;31.63;;
76059;SDS011;64759;52.220;5.170;2023-01-25T05:29:39;39.17;;;26.27;;
76059;SDS011;64759;52.220;5.170;2023-01-25T05:32:08;49.85;;;33.05;;
76059;SDS011;64759;52.220;5.170;2023-01-25T05:34:36;36.83;;;23.65;;
76059;SDS011;64759;52.220;5.170;2023-01-25T05:37:03;53.85;;;33.83;;
76059;SDS011;64759;52.220;5.170;2023-01-25T05:39:29;48.42;;;31.35;;
76059;SDS011;64759;52.220;5.170;2023-01-25T05:41:55;55.63;;;34.20;;
76059;SDS011;64759;52.220;5.170;2023-01-25T05:44:21;54.13;;;33.75;;
76059;SDS011;64759;52.220;5.170;2023-01-25T05:46:49;52.78;;;33.08;;
76059;SDS011;64759;52.220;5.170;2023-01-25T05:49:15;49.25;;;33.20;;
76059;SDS011;64759;52.220;5.170;2023-01-25T05:51:42;50.78;;;33.22;;
76059;SDS011;64759;52.220;5.170;2023-01-25T05:54:16;54.90;;;33.85;;
76059;SDS011;64759;52.220;5.170;2023-01-25T05:56:49;52.72;;;34.08;;
76059;SDS011;64759;52.220;5.170;2023-01-25T05:59:15;51.72;;;32.65;;
76059;SDS011;64759;52.220;5.170;2023-01-25T06:01:42;51.13;;;33.63;;
76059;SDS011;64759;52.220;5.170;2023-01-25T06:04:08;52.28;;;33.10;;
76059;SDS011;64759;52.220;5.170;2023-01-25T06:06:38;57.95;;;36.08;;
76059;SDS011;64759;52.220;5.170;2023-01-25T06:09:04;54.33;;;35.03;;
76059;SDS011;64759;52.220;5.170;2023-01-25T06:11:30;52.53;;;35.15;;
76059;SDS011;64759;52.220;5.170;2023-01-25T06:13:56;60.60;;;36.00;;
76059;SDS011;64759;52.220;5.170;2023-01-25T06:16:22;57.70;;;35.22;;
76059;SDS011;64759;52.220;5.170;2023-01-25T06:18:47;56.58;;;33.55;;
76059;SDS011;64759;52.220;5.170;2023-01-25T06:21:51;58.10;;;36.67;;
76059;SDS011;64759;52.220;5.170;2023-01-25T06:24:16;56.47;;;36.35;;
76059;SDS011;64759;52.220;5.170;2023-01-25T06:26:42;57.92;;;36.47;;
76059;SDS011;64759;52.220;5.170;2023-01-25T06:29:07;57.25;;;36.40;;
76059;SDS011;64759;52.220;5.170;2023-01-25T06:31:32;59.58;;;37.78;;
76059;SDS011;64759;52.220;5.170;2023-01-25T06:33:58;61.85;;;37.25;;
76059;SDS011;64759;52.220;5.170;2023-01-25T06:36:28;61.08;;;35.95;;
76059;SDS011;64759;52.220;5.170;2023-01-25T06:38:54;54.47;;;34.28;;
76059;SDS011;64759;52.220;5.170;2023-01-25T06:41:19;55.13;;;35.20;;
76059;SDS011;64759;52.220;5.170;2023-01-25T06:43:45;60.50;;;37.10;;
76059;SDS011;64759;52.220;5.170;2023-01-25T06:46:13;61.20;;;37.00;;
76059;SDS011;64759;52.220;5.170;2023-01-25T06:48:39;59.13;;;36.95;;
76059;SDS011;64759;52.220;5.170;2023-01-25T06:51:08;58.22;;;35.63;;
76059;SDS011;64759;52.220;5.170;2023-01-25T06:53:36;60.88;;;37.58;;
76059;SDS011;64759;52.220;5.170;2023-01-25T06:56:06;63.88;;;37.40;;
76059;SDS011;64759;52.220;5.170;2023-01-25T06:58:33;61.25;;;37.60;;
76059;SDS011;64759;52.220;5.170;2023-01-25T07:01:00;62.85;;;38.05;;
76059;SDS011;64759;52.220;5.170;2023-01-25T07:03:27;63.80;;;38.05;;
76059;SDS011;64759;52.220;5.170;2023-01-25T07:05:57;62.22;;;39.42;;
76059;SDS011;64759;52.220;5.170;2023-01-25T07:08:27;64.38;;;38.35;;
76059;SDS011;64759;52.220;5.170;2023-01-25T07:10:56;61.78;;;36.50;;
76059;SDS011;64759;52.220;5.170;2023-01-25T07:13:23;53.58;;;32.67;;
76059;SDS011;64759;52.220;5.170;2023-01-25T07:15:56;57.42;;;35.53;;
76059;SDS011;64759;52.220;5.170;2023-01-25T07:18:29;57.20;;;34.67;;
76059;SDS011;64759;52.220;5.170;2023-01-25T07:21:12;58.13;;;36.65;;
76059;SDS011;64759;52.220;5.170;2023-01-25T07:23:38;64.53;;;36.55;;
76059;SDS011;64759;52.220;5.170;2023-01-25T07:26:05;61.55;;;37.22;;
76059;SDS011;64759;52.220;5.170;2023-01-25T07:28:39;58.13;;;35.47;;
76059;SDS011;64759;52.220;5.170;2023-01-25T07:31:05;65.25;;;37.90;;
76059;SDS011;64759;52.220;5.170;2023-01-25T07:33:31;64.45;;;37.25;;
76059;SDS011;64759;52.220;5.170;2023-01-25T07:36:04;67.18;;;37.95;;
76059;SDS011;64759;52.220;5.170;2023-01-25T07:38:31;68.22;;;38.40;;
76059;SDS011;64759;52.220;5.170;2023-01-25T07:40:58;62.20;;;36.40;;
76059;SDS011;64759;52.220;5.170;2023-01-25T07:43:23;66.30;;;38.92;;
76059;SDS011;64759;52.220;5.170;2023-01-25T07:45:50;62.33;;;37.00;;
76059;SDS011;64759;52.220;5.170;2023-01-25T07:48:16;60.13;;;37.10;;
76059;SDS011;64759;52.220;5.170;2023-01-25T07:50:43;60.75;;;34.85;;
76059;SDS011;64759;52.220;5.170;2023-01-25T07:53:36;66.30;;;39.03;;
76059;SDS011;64759;52.220;5.170;2023-01-25T07:56:02;65.32;;;39.17;;
76059;SDS011;64759;52.220;5.170;2023-01-25T07:58:28;66.53;;;39.30;;
76059;SDS011;64759;52.220;5.170;2023-01-25T08:00:53;67.63;;;40.33;;
76059;SDS011;64759;52.220;5.170;2023-01-25T08:03:19;57.47;;;34.40;;
76059;SDS011;64759;52.220;5.170;2023-01-25T08:05:46;65.80;;;39.90;;
76059;SDS011;64759;52.220;5.170;2023-01-25T08:08:12;62.00;;;37.47;;
76059;SDS011;64759;52.220;5.170;2023-01-25T08:10:38;63.90;;;36.72;;
76059;SDS011;64759;52.220;5.170;2023-01-25T08:13:04;64.25;;;38.63;;
76059;SDS011;64759;52.220;5.170;2023-01-25T08:15:31;69.28;;;40.53;;
76059;SDS011;64759;52.220;5.170;2023-01-25T08:17:59;72.40;;;41.70;;
76059;SDS011;64759;52.220;5.170;2023-01-25T08:20:25;68.65;;;38.75;;
76059;SDS011;64759;52.220;5.170;2023-01-25T08:22:53;60.70;;;34.65;;
76059;SDS011;64759;52.220;5.170;2023-01-25T08:25:19;69.28;;;41.22;;
76059;SDS011;64759;52.220;5.170;2023-01-25T08:27:44;70.70;;;41.10;;
76059;SDS011;64759;52.220;5.170;2023-01-25T08:30:10;65.03;;;39.33;;
76059;SDS011;64759;52.220;5.170;2023-01-25T08:32:38;68.38;;;38.60;;
76059;SDS011;64759;52.220;5.170;2023-01-25T08:35:04;69.18;;;39.88;;
76059;SDS011;64759;52.220;5.170;2023-01-25T08:37:30;62.40;;;35.67;;
76059;SDS011;64759;52.220;5.170;2023-01-25T08:39:55;66.47;;;37.88;;
76059;SDS011;64759;52.220;5.170;2023-01-25T08:42:22;66.97;;;39.78;;
76059;SDS011;64759;52.220;5.170;2023-01-25T08:44:48;70.32;;;37.33;;
76059;SDS011;64759;52.220;5.170;2023-01-25T08:47:14;69.43;;;40.17;;
76059;SDS011;64759;52.220;5.170;2023-01-25T08:49:39;73.78;;;39.22;;
76059;SDS011;64759;52.220;5.170;2023-01-25T08:52:05;68.63;;;38.88;;
76059;SDS011;64759;52.220;5.170;2023-01-25T08:54:30;59.30;;;34.47;;
76059;SDS011;64759;52.220;5.170;2023-01-25T08:56:56;69.05;;;38.20;;
76059;SDS011;64759;52.220;5.170;2023-01-25T08:59:21;55.42;;;33.05;;
76059;SDS011;64759;52.220;5.170;2023-01-25T09:01:47;62.00;;;36.38;;
76059;SDS011;64759;52.220;5.170;2023-01-25T09:04:12;67.13;;;38.15;;
76059;SDS011;64759;52.220;5.170;2023-01-25T09:06:38;74.85;;;41.22;;
76059;SDS011;64759;52.220;5.170;2023-01-25T09:09:04;60.53;;;35.30;;
76059;SDS011;64759;52.220;5.170;2023-01-25T09:11:31;69.30;;;39.00;;
76059;SDS011;64759;52.220;5.170;2023-01-25T09:13:58;76.65;;;42.33;;
76059;SDS011;64759;52.220;5.170;2023-01-25T09:16:24;69.97;;;40.28;;
76059;SDS011;64759;52.220;5.170;2023-01-25T09:18:53;70.18;;;40.05;;
76059;SDS011;64759;52.220;5.170;2023-01-25T09:21:20;75.78;;;41.22;;
76059;SDS011;64759;52.220;5.170;2023-01-25T09:23:47;75.93;;;42.72;;
76059;SDS011;64759;52.220;5.170;2023-01-25T09:26:14;68.10;;;38.22;;
76059;SDS011;64759;52.220;5.170;2023-01-25T09:28:40;63.67;;;35.40;;
76059;SDS011;64759;52.220;5.170;2023-01-25T09:31:11;79.15;;;42.97;;
76059;SDS011;64759;52.220;5.170;2023-01-25T09:34:00;70.70;;;40.20;;
76059;SDS011;64759;52.220;5.170;2023-01-25T09:36:25;73.63;;;40.75;;
76059;SDS011;64759;52.220;5.170;2023-01-25T09:38:51;76.60;;;42.70;;
76059;SDS011;64759;52.220;5.170;2023-01-25T09:44:09;76.20;;;42.80;;
76059;SDS011;64759;52.220;5.170;2023-01-25T09:46:58;72.80;;;41.15;;
76059;SDS011;64759;52.220;5.170;2023-01-25T09:54:40;76.20;;;41.92;;
76059;SDS011;64759;52.220;5.170;2023-01-25T09:57:21;70.63;;;41.55;;
76059;SDS011;64759;52.220;5.170;2023-01-25T09:59:51;78.60;;;41.25;;
76059;SDS011;64759;52.220;5.170;2023-01-25T10:05:19;76.25;;;42.15;;
76059;SDS011;64759;52.220;5.170;2023-01-25T10:10:34;82.65;;;44.05;;
76059;SDS011;64759;52.220;5.170;2023-01-25T10:13:03;80.20;;;43.97;;
76059;SDS011;64759;52.220;5.170;2023-01-25T10:15:34;78.07;;;41.72;;
76059;SDS011;64759;52.220;5.170;2023-01-25T10:20:34;83.88;;;42.78;;
76059;SDS011;64759;52.220;5.170;2023-01-25T10:23:14;77.80;;;41.38;;
76059;SDS011;64759;52.220;5.170;2023-01-25T10:28:52;77.63;;;42.88;;
76059;SDS011;64759;52.220;5.170;2023-01-25T10:31:35;81.70;;;43.55;;
76059;SDS011;64759;52.220;5.170;2023-01-25T10:34:15;81.60;;;44.58;;
76059;SDS011;64759;52.220;5.170;2023-01-25T10:36:44;80.30;;;42.60;;
76059;SDS011;64759;52.220;5.170;2023-01-25T10:39:19;79.82;;;42.15;;
76059;SDS011;64759;52.220;5.170;2023-01-25T10:41:49;74.38;;;40.22;;
76059;SDS011;64759;52.220;5.170;2023-01-25T10:44:20;76.60;;;41.75;;
76059;SDS011;64759;52.220;5.170;2023-01-25T10:52:22;73.05;;;39.97;;
76059;SDS011;64759;52.220;5.170;2023-01-25T10:57:46;80.45;;;42.70;;
76059;SDS011;64759;52.220;5.170;2023-01-25T11:00:36;76.90;;;41.75;;
76059;SDS011;64759;52.220;5.170;2023-01-25T11:03:03;79.00;;;39.90;;
76059;SDS011;64759;52.220;5.170;2023-01-25T11:07:56;94.43;;;47.00;;
76059;SDS011;64759;52.220;5.170;2023-01-25T11:10:26;76.13;;;41.42;;
76059;SDS011;64759;52.220;5.170;2023-01-25T11:15:37;79.25;;;42.28;;
76059;SDS011;64759;52.220;5.170;2023-01-25T11:18:05;81.72;;;43.15;;
76059;SDS011;64759;52.220;5.170;2023-01-25T11:20:35;78.25;;;40.35;;
76059;SDS011;64759;52.220;5.170;2023-01-25T11:23:00;95.07;;;44.13;;
76059;SDS011;64759;52.220;5.170;2023-01-25T11:25:27;80.10;;;41.10;;
76059;SDS011;64759;52.220;5.170;2023-01-25T11:30:44;80.38;;;41.50;;
76059;SDS011;64759;52.220;5.170;2023-01-25T11:33:11;88.05;;;43.13;;
76059;SDS011;64759;52.220;5.170;2023-01-25T11:38:28;72.75;;;37.92;;
76059;SDS011;64759;52.220;5.170;2023-01-25T11:40:58;78.10;;;39.38;;
76059;SDS011;64759;52.220;5.170;2023-01-25T11:46:29;72.22;;;36.03;;
76059;SDS011;64759;52.220;5.170;2023-01-25T11:49:17;84.32;;;44.47;;
76059;SDS011;64759;52.220;5.170;2023-01-25T11:52:21;85.80;;;44.93;;
76059;SDS011;64759;52.220;5.170;2023-01-25T11:55:08;83.82;;;41.65;;
76059;SDS011;64759;52.220;5.170;2023-01-25T12:12:02;78.40;;;40.55;;
76059;SDS011;64759;52.220;5.170;2023-01-25T12:17:19;81.20;;;40.30;;
76059;SDS011;64759;52.220;5.170;2023-01-25T12:22:58;89.85;;;46.15;;
76059;SDS011;64759;52.220;5.170;2023-01-25T12:25:51;80.40;;;41.20;;
76059;SDS011;64759;52.220;5.170;2023-01-25T12:28:30;78.97;;;39.35;;
76059;SDS011;64759;52.220;5.170;2023-01-25T12:33:56;77.55;;;40.20;;
76059;SDS011;64759;52.220;5.170;2023-01-25T12:39:03;87.55;;;45.50;;
76059;SDS011;64759;52.220;5.170;2023-01-25T12:41:38;80.30;;;41.88;;
76059;SDS011;64759;52.220;5.170;2023-01-25T12:49:28;76.70;;;42.05;;
76059;SDS011;64759;52.220;5.170;2023-01-25T12:52:31;79.88;;;41.60;;
76059;SDS011;64759;52.220;5.170;2023-01-25T12:55:00;75.57;;;38.28;;
76059;SDS011;64759;52.220;5.170;2023-01-25T12:57:43;79.40;;;42.27;;
76059;SDS011;64759;52.220;5.170;2023-01-25T13:00:23;83.93;;;40.08;;
76059;SDS011;64759;52.220;5.170;2023-01-25T13:03:11;85.40;;;43.85;;
76059;SDS011;64759;52.220;5.170;2023-01-25T13:05:52;75.45;;;40.17;;
76059;SDS011;64759;52.220;5.170;2023-01-25T13:08:33;84.88;;;42.20;;
76059;SDS011;64759;52.220;5.170;2023-01-25T13:11:17;82.10;;;43.72;;
76059;SDS011;64759;52.220;5.170;2023-01-25T13:13:46;79.88;;;41.80;;
76059;SDS011;64759;52.220;5.170;2023-01-25T13:18:52;77.68;;;41.80;;
76059;SDS011;64759;52.220;5.170;2023-01-25T13:21:38;85.18;;;43.35;;
76059;SDS011;64759;52.220;5.170;2023-01-25T13:26:46;81.40;;;40.20;;
76059;SDS011;64759;52.220;5.170;2023-01-25T13:32:12;73.07;;;37.20;;
76059;SDS011;64759;52.220;5.170;2023-01-25T13:37:39;80.07;;;41.15;;
76059;SDS011;64759;52.220;5.170;2023-01-25T13:40:04;72.47;;;37.00;;
76059;SDS011;64759;52.220;5.170;2023-01-25T13:43:00;77.63;;;38.47;;
76059;SDS011;64759;52.220;5.170;2023-01-25T13:45:28;74.22;;;39.20;;
76059;SDS011;64759;52.220;5.170;2023-01-25T13:48:30;90.90;;;40.85;;
76059;SDS011;64759;52.220;5.170;2023-01-25T13:50:56;85.18;;;42.47;;
76059;SDS011;64759;52.220;5.170;2023-01-25T13:53:27;78.97;;;40.30;;
76059;SDS011;64759;52.220;5.170;2023-01-25T13:55:59;72.47;;;36.15;;
76059;SDS011;64759;52.220;5.170;2023-01-25T13:58:30;90.18;;;44.40;;
76059;SDS011;64759;52.220;5.170;2023-01-25T14:00:58;95.70;;;49.00;;
76059;SDS011;64759;52.220;5.170;2023-01-25T14:04:09;95.53;;;47.67;;
76059;SDS011;64759;52.220;5.170;2023-01-25T14:06:24;98.57;;;47.13;;
76059;SDS011;64759;52.220;5.170;2023-01-25T14:08:52;104.95;;;51.38;;
76059;SDS011;64759;52.220;5.170;2023-01-25T14:11:27;102.47;;;50.35;;
76059;SDS011;64759;52.220;5.170;2023-01-25T14:16:25;113.70;;;53.47;;
76059;SDS011;64759;52.220;5.170;2023-01-25T14:18:51;108.80;;;51.95;;
76059;SDS011;64759;52.220;5.170;2023-01-25T14:21:18;113.63;;;54.10;;
76059;SDS011;64759;52.220;5.170;2023-01-25T14:23:45;114.97;;;53.42;;
76059;SDS011;64759;52.220;5.170;2023-01-25T14:26:21;108.43;;;52.67;;
76059;SDS011;64759;52.220;5.170;2023-01-25T14:28:50;114.95;;;53.63;;
76059;SDS011;64759;52.220;5.170;2023-01-25T14:31:20;111.40;;;52.28;;
76059;SDS011;64759;52.220;5.170;2023-01-25T14:33:47;118.93;;;53.43;;
76059;SDS011;64759;52.220;5.170;2023-01-25T14:36:19;113.07;;;53.65;;
76059;SDS011;64759;52.220;5.170;2023-01-25T14:38:45;121.40;;;57.45;;
76059;SDS011;64759;52.220;5.170;2023-01-25T14:43:50;108.05;;;52.00;;
76059;SDS011;64759;52.220;5.170;2023-01-25T14:46:19;117.65;;;55.30;;
76059;SDS011;64759;52.220;5.170;2023-01-25T14:49:07;118.22;;;55.25;;
76059;SDS011;64759;52.220;5.170;2023-01-25T14:51:44;113.77;;;54.57;;
76059;SDS011;64759;52.220;5.170;2023-01-25T14:54:14;112.68;;;55.33;;
76059;SDS011;64759;52.220;5.170;2023-01-25T14:59:16;111.00;;;53.70;;
76059;SDS011;64759;52.220;5.170;2023-01-25T15:01:49;97.18;;;46.13;;
76059;SDS011;64759;52.220;5.170;2023-01-25T15:04:16;99.65;;;48.70;;
76059;SDS011;64759;52.220;5.170;2023-01-25T15:06:52;102.13;;;48.45;;
76059;SDS011;64759;52.220;5.170;2023-01-25T15:09:32;102.15;;;49.13;;
76059;SDS011;64759;52.220;5.170;2023-01-25T15:14:47;111.45;;;50.15;;
76059;SDS011;64759;52.220;5.170;2023-01-25T15:20:29;110.80;;;51.33;;
76059;SDS011;64759;52.220;5.170;2023-01-25T15:23:01;125.13;;;54.90;;
76059;SDS011;64759;52.220;5.170;2023-01-25T15:25:49;122.57;;;53.47;;
76059;SDS011;64759;52.220;5.170;2023-01-25T15:28:15;108.47;;;49.08;;
76059;SDS011;64759;52.220;5.170;2023-01-25T15:30:40;123.32;;;54.28;;
76059;SDS011;64759;52.220;5.170;2023-01-25T15:33:07;125.82;;;55.05;;
76059;SDS011;64759;52.220;5.170;2023-01-25T15:35:42;124.03;;;53.35;;
76059;SDS011;64759;52.220;5.170;2023-01-25T15:38:09;107.78;;;48.67;;
76059;SDS011;64759;52.220;5.170;2023-01-25T15:40:36;120.50;;;53.53;;
76059;SDS011;64759;52.220;5.170;2023-01-25T15:43:02;124.07;;;52.53;;
76059;SDS011;64759;52.220;5.170;2023-01-25T15:45:27;124.55;;;53.75;;
76059;SDS011;64759;52.220;5.170;2023-01-25T15:47:53;115.82;;;52.53;;
76059;SDS011;64759;52.220;5.170;2023-01-25T15:50:18;114.93;;;49.38;;
76059;SDS011;64759;52.220;5.170;2023-01-25T15:52:44;118.88;;;52.22;;
76059;SDS011;64759;52.220;5.170;2023-01-25T15:55:11;121.68;;;52.05;;
76059;SDS011;64759;52.220;5.170;2023-01-25T15:57:38;124.45;;;56.88;;
76059;SDS011;64759;52.220;5.170;2023-01-25T16:00:05;120.38;;;52.70;;
76059;SDS011;64759;52.220;5.170;2023-01-25T16:02:38;127.93;;;55.33;;
76059;SDS011;64759;52.220;5.170;2023-01-25T16:05:04;122.85;;;53.20;;
76059;SDS011;64759;52.220;5.170;2023-01-25T16:07:29;128.85;;;55.40;;
76059;SDS011;64759;52.220;5.170;2023-01-25T16:09:55;123.97;;;54.60;;
76059;SDS011;64759;52.220;5.170;2023-01-25T16:12:22;128.02;;;56.20;;
76059;SDS011;64759;52.220;5.170;2023-01-25T16:14:49;121.22;;;54.00;;
76059;SDS011;64759;52.220;5.170;2023-01-25T16:17:19;132.77;;;58.42;;
76059;SDS011;64759;52.220;5.170;2023-01-25T16:19:46;116.65;;;54.63;;
76059;SDS011;64759;52.220;5.170;2023-01-25T16:22:16;122.70;;;56.83;;
76059;SDS011;64759;52.220;5.170;2023-01-25T16:24:43;128.88;;;58.22;;
76059;SDS011;64759;52.220;5.170;2023-01-25T16:27:12;129.25;;;58.42;;